sensor_id;sensor_type;location;lat;lon;timestamp;P1;durP1;ratioP1;P2;durP2;ratioP2
63882;SDS011;50047;50.596;30.466;2023-07-31T00:00:04;6.40;;;3.10;;
63882;SDS011;50047;50.596;30.466;2023-07-31T00:02:32;6.60;;;3.40;;
63882;SDS011;50047;50.596;30.466;2023-07-31T00:04:59;8.60;;;2.60;;
63882;SDS011;50047;50.596;30.466;2023-07-31T00:07:27;4.90;;;2.80;;
63882;SDS011;50047;50.596;30.466;2023-07-31T00:09:53;4.70;;;2.70;;
63882;SDS011;50047;50.596;30.466;2023-07-31T00:12:20;6.30;;;2.80;;
63882;SDS011;50047;50.596;30.466;2023-07-31T00:14:47;4.50;;;2.80;;
63882;SDS011;50047;50.596;30.466;2023-07-31T00:17:14;6.10;;;3.40;;
63882;SDS011;50047;50.596;30.466;2023-07-31T00:19:43;8.30;;;3.70;;
63882;SDS011;50047;50.596;30.466;2023-07-31T00:22:12;4.90;;;2.60;;
63882;SDS011;50047;50.596;30.466;2023-07-31T00:24:39;4.90;;;2.40;;
63882;SDS011;50047;50.596;30.466;2023-07-31T00:27:06;5.60;;;2.70;;
63882;SDS011;50047;50.596;30.466;2023-07-31T00:29:33;6.90;;;3.00;;
63882;SDS011;50047;50.596;30.466;2023-07-31T00:32:00;6.50;;;3.30;;
63882;SDS011;50047;50.596;30.466;2023-07-31T00:34:27;4.50;;;3.10;;
63882;SDS011;50047;50.596;30.466;2023-07-31T00:36:54;4.70;;;2.30;;
63882;SDS011;50047;50.596;30.466;2023-07-31T00:39:20;3.50;;;2.20;;
63882;SDS011;50047;50.596;30.466;2023-07-31T00:41:47;4.30;;;2.70;;
63882;SDS011;50047;50.596;30.466;2023-07-31T00:44:14;4.60;;;2.50;;
63882;SDS011;50047;50.596;30.466;2023-07-31T00:46:41;4.10;;;2.70;;
63882;SDS011;50047;50.596;30.466;2023-07-31T00:49:08;4.30;;;2.80;;
63882;SDS011;50047;50.596;30.466;2023-07-31T00:51:36;4.20;;;2.40;;
63882;SDS011;50047;50.596;30.466;2023-07-31T00:54:03;4.40;;;2.10;;
63882;SDS011;50047;50.596;30.466;2023-07-31T00:56:30;3.50;;;2.70;;
63882;SDS011;50047;50.596;30.466;2023-07-31T00:58:57;3.70;;;2.30;;
63882;SDS011;50047;50.596;30.466;2023-07-31T01:01:24;5.90;;;2.40;;
63882;SDS011;50047;50.596;30.466;2023-07-31T01:03:51;4.30;;;3.00;;
63882;SDS011;50047;50.596;30.466;2023-07-31T01:11:39;6.10;;;3.00;;
63882;SDS011;50047;50.596;30.466;2023-07-31T01:14:19;5.70;;;3.10;;
63882;SDS011;50047;50.596;30.466;2023-07-31T01:16:46;5.50;;;3.00;;
63882;SDS011;50047;50.596;30.466;2023-07-31T01:19:14;6.20;;;3.40;;
63882;SDS011;50047;50.596;30.466;2023-07-31T01:24:20;5.10;;;2.70;;
63882;SDS011;50047;50.596;30.466;2023-07-31T01:27:09;6.50;;;4.20;;
63882;SDS011;50047;50.596;30.466;2023-07-31T01:32:19;11.00;;;5.60;;
63882;SDS011;50047;50.596;30.466;2023-07-31T01:34:46;9.80;;;5.80;;
63882;SDS011;50047;50.596;30.466;2023-07-31T01:37:14;4.10;;;2.70;;
63882;SDS011;50047;50.596;30.466;2023-07-31T01:39:40;5.90;;;3.50;;
63882;SDS011;50047;50.596;30.466;2023-07-31T01:42:07;6.60;;;4.30;;
63882;SDS011;50047;50.596;30.466;2023-07-31T01:44:34;7.10;;;4.30;;
63882;SDS011;50047;50.596;30.466;2023-07-31T01:47:04;9.60;;;5.50;;
63882;SDS011;50047;50.596;30.466;2023-07-31T01:49:32;9.30;;;5.90;;
63882;SDS011;50047;50.596;30.466;2023-07-31T01:52:00;9.90;;;6.00;;
63882;SDS011;50047;50.596;30.466;2023-07-31T01:54:27;4.00;;;2.90;;
63882;SDS011;50047;50.596;30.466;2023-07-31T01:56:54;4.90;;;3.30;;
63882;SDS011;50047;50.596;30.466;2023-07-31T01:59:21;5.70;;;4.10;;
63882;SDS011;50047;50.596;30.466;2023-07-31T02:01:48;8.30;;;4.60;;
63882;SDS011;50047;50.596;30.466;2023-07-31T02:04:15;6.90;;;4.80;;
63882;SDS011;50047;50.596;30.466;2023-07-31T02:06:43;8.70;;;5.00;;
63882;SDS011;50047;50.596;30.466;2023-07-31T02:09:10;7.10;;;4.90;;
63882;SDS011;50047;50.596;30.466;2023-07-31T02:11:37;5.40;;;3.70;;
63882;SDS011;50047;50.596;30.466;2023-07-31T02:14:04;8.20;;;4.70;;
63882;SDS011;50047;50.596;30.466;2023-07-31T02:16:31;7.20;;;5.20;;
63882;SDS011;50047;50.596;30.466;2023-07-31T02:19:00;6.90;;;4.70;;
63882;SDS011;50047;50.596;30.466;2023-07-31T02:21:27;9.70;;;5.80;;
63882;SDS011;50047;50.596;30.466;2023-07-31T02:23:54;9.00;;;6.20;;
63882;SDS011;50047;50.596;30.466;2023-07-31T02:26:20;9.60;;;5.40;;
63882;SDS011;50047;50.596;30.466;2023-07-31T02:28:47;6.00;;;3.00;;
63882;SDS011;50047;50.596;30.466;2023-07-31T02:31:14;5.70;;;3.60;;
63882;SDS011;50047;50.596;30.466;2023-07-31T02:33:41;7.30;;;4.50;;
63882;SDS011;50047;50.596;30.466;2023-07-31T02:36:09;7.70;;;4.60;;
63882;SDS011;50047;50.596;30.466;2023-07-31T02:38:37;7.40;;;5.00;;
63882;SDS011;50047;50.596;30.466;2023-07-31T02:41:06;7.40;;;5.30;;
63882;SDS011;50047;50.596;30.466;2023-07-31T02:43:33;4.20;;;2.70;;
63882;SDS011;50047;50.596;30.466;2023-07-31T02:46:00;5.00;;;3.40;;
63882;SDS011;50047;50.596;30.466;2023-07-31T02:48:27;5.60;;;4.10;;
63882;SDS011;50047;50.596;30.466;2023-07-31T02:50:54;9.50;;;4.50;;
63882;SDS011;50047;50.596;30.466;2023-07-31T02:53:21;5.30;;;4.40;;
63882;SDS011;50047;50.596;30.466;2023-07-31T02:55:49;6.10;;;4.60;;
63882;SDS011;50047;50.596;30.466;2023-07-31T02:58:16;3.10;;;2.40;;
63882;SDS011;50047;50.596;30.466;2023-07-31T03:00:43;4.70;;;3.20;;
63882;SDS011;50047;50.596;30.466;2023-07-31T03:03:10;4.90;;;3.90;;
63882;SDS011;50047;50.596;30.466;2023-07-31T03:05:38;6.90;;;4.50;;
63882;SDS011;50047;50.596;30.466;2023-07-31T03:08:04;7.00;;;4.40;;
63882;SDS011;50047;50.596;30.466;2023-07-31T03:10:32;7.50;;;4.50;;
63882;SDS011;50047;50.596;30.466;2023-07-31T03:12:59;3.00;;;2.40;;
63882;SDS011;50047;50.596;30.466;2023-07-31T03:15:25;4.30;;;3.00;;
63882;SDS011;50047;50.596;30.466;2023-07-31T03:17:52;5.70;;;3.40;;
63882;SDS011;50047;50.596;30.466;2023-07-31T03:20:19;5.20;;;4.10;;
63882;SDS011;50047;50.596;30.466;2023-07-31T03:22:46;5.90;;;4.30;;
63882;SDS011;50047;50.596;30.466;2023-07-31T03:25:13;6.60;;;3.70;;
63882;SDS011;50047;50.596;30.466;2023-07-31T03:27:41;7.10;;;3.60;;
63882;SDS011;50047;50.596;30.466;2023-07-31T03:30:07;3.00;;;1.70;;
63882;SDS011;50047;50.596;30.466;2023-07-31T03:32:35;2.90;;;2.40;;
63882;SDS011;50047;50.596;30.466;2023-07-31T03:35:01;5.40;;;3.30;;
63882;SDS011;50047;50.596;30.466;2023-07-31T03:37:29;5.00;;;3.60;;
63882;SDS011;50047;50.596;30.466;2023-07-31T03:39:56;5.20;;;3.90;;
63882;SDS011;50047;50.596;30.466;2023-07-31T03:42:23;7.90;;;4.20;;
63882;SDS011;50047;50.596;30.466;2023-07-31T03:44:50;6.10;;;3.60;;
63882;SDS011;50047;50.596;30.466;2023-07-31T03:47:17;3.20;;;1.80;;
63882;SDS011;50047;50.596;30.466;2023-07-31T03:49:44;3.80;;;2.80;;
63882;SDS011;50047;50.596;30.466;2023-07-31T03:52:12;4.40;;;2.90;;
63882;SDS011;50047;50.596;30.466;2023-07-31T03:54:39;5.00;;;3.70;;
63882;SDS011;50047;50.596;30.466;2023-07-31T03:57:06;5.60;;;3.90;;
63882;SDS011;50047;50.596;30.466;2023-07-31T03:59:32;7.50;;;4.00;;
63882;SDS011;50047;50.596;30.466;2023-07-31T04:02:00;9.90;;;4.20;;
63882;SDS011;50047;50.596;30.466;2023-07-31T04:04:26;3.50;;;2.10;;
63882;SDS011;50047;50.596;30.466;2023-07-31T04:06:53;3.50;;;2.40;;
63882;SDS011;50047;50.596;30.466;2023-07-31T04:09:20;6.10;;;2.80;;
63882;SDS011;50047;50.596;30.466;2023-07-31T04:11:47;5.40;;;3.30;;
63882;SDS011;50047;50.596;30.466;2023-07-31T04:14:14;4.70;;;3.20;;
63882;SDS011;50047;50.596;30.466;2023-07-31T04:16:41;4.60;;;3.60;;
63882;SDS011;50047;50.596;30.466;2023-07-31T04:19:08;6.70;;;3.40;;
63882;SDS011;50047;50.596;30.466;2023-07-31T04:21:37;3.50;;;2.20;;
63882;SDS011;50047;50.596;30.466;2023-07-31T04:24:04;4.80;;;2.50;;
63882;SDS011;50047;50.596;30.466;2023-07-31T04:26:31;4.20;;;2.70;;
63882;SDS011;50047;50.596;30.466;2023-07-31T04:28:58;4.90;;;3.00;;
63882;SDS011;50047;50.596;30.466;2023-07-31T04:31:25;7.10;;;3.80;;
63882;SDS011;50047;50.596;30.466;2023-07-31T04:33:51;6.70;;;4.20;;
63882;SDS011;50047;50.596;30.466;2023-07-31T04:36:18;7.50;;;4.50;;
63882;SDS011;50047;50.596;30.466;2023-07-31T04:38:45;5.60;;;4.20;;
63882;SDS011;50047;50.596;30.466;2023-07-31T04:41:12;4.10;;;2.10;;
63882;SDS011;50047;50.596;30.466;2023-07-31T04:43:39;5.70;;;3.20;;
63882;SDS011;50047;50.596;30.466;2023-07-31T04:46:06;4.60;;;3.00;;
63882;SDS011;50047;50.596;30.466;2023-07-31T04:48:33;5.70;;;3.90;;
63882;SDS011;50047;50.596;30.466;2023-07-31T04:51:00;6.50;;;3.80;;
63882;SDS011;50047;50.596;30.466;2023-07-31T04:53:27;5.20;;;4.00;;
63882;SDS011;50047;50.596;30.466;2023-07-31T04:55:54;5.30;;;3.90;;
63882;SDS011;50047;50.596;30.466;2023-07-31T04:58:21;6.00;;;4.10;;
63882;SDS011;50047;50.596;30.466;2023-07-31T05:00:47;2.60;;;1.80;;
63882;SDS011;50047;50.596;30.466;2023-07-31T05:03:14;3.60;;;2.70;;
63882;SDS011;50047;50.596;30.466;2023-07-31T05:05:41;4.30;;;3.20;;
63882;SDS011;50047;50.596;30.466;2023-07-31T05:08:08;5.00;;;3.40;;
63882;SDS011;50047;50.596;30.466;2023-07-31T05:10:37;4.00;;;3.40;;
63882;SDS011;50047;50.596;30.466;2023-07-31T05:13:04;5.00;;;3.80;;
63882;SDS011;50047;50.596;30.466;2023-07-31T05:15:31;4.80;;;3.90;;
63882;SDS011;50047;50.596;30.466;2023-07-31T05:17:58;5.20;;;4.20;;
63882;SDS011;50047;50.596;30.466;2023-07-31T05:20:25;3.50;;;2.30;;
63882;SDS011;50047;50.596;30.466;2023-07-31T05:22:52;4.50;;;3.10;;
63882;SDS011;50047;50.596;30.466;2023-07-31T05:25:19;5.10;;;3.90;;
63882;SDS011;50047;50.596;30.466;2023-07-31T05:27:46;5.00;;;3.80;;
63882;SDS011;50047;50.596;30.466;2023-07-31T05:30:13;5.10;;;4.30;;
63882;SDS011;50047;50.596;30.466;2023-07-31T05:32:40;7.00;;;5.30;;
63882;SDS011;50047;50.596;30.466;2023-07-31T05:35:07;6.80;;;5.10;;
63882;SDS011;50047;50.596;30.466;2023-07-31T05:37:35;6.60;;;5.50;;
63882;SDS011;50047;50.596;30.466;2023-07-31T05:40:02;3.10;;;2.70;;
63882;SDS011;50047;50.596;30.466;2023-07-31T05:42:30;4.80;;;3.50;;
63882;SDS011;50047;50.596;30.466;2023-07-31T05:44:58;4.70;;;3.70;;
63882;SDS011;50047;50.596;30.466;2023-07-31T05:47:25;6.10;;;4.40;;
63882;SDS011;50047;50.596;30.466;2023-07-31T05:49:52;6.20;;;4.80;;
63882;SDS011;50047;50.596;30.466;2023-07-31T05:52:19;7.10;;;5.50;;
63882;SDS011;50047;50.596;30.466;2023-07-31T05:54:46;6.90;;;4.90;;
63882;SDS011;50047;50.596;30.466;2023-07-31T05:57:14;7.30;;;5.80;;
63882;SDS011;50047;50.596;30.466;2023-07-31T05:59:41;3.60;;;2.90;;
63882;SDS011;50047;50.596;30.466;2023-07-31T06:02:08;5.90;;;3.80;;
63882;SDS011;50047;50.596;30.466;2023-07-31T06:04:35;5.20;;;4.30;;
63882;SDS011;50047;50.596;30.466;2023-07-31T06:07:02;8.20;;;5.40;;
63882;SDS011;50047;50.596;30.466;2023-07-31T06:09:29;6.90;;;5.60;;
63882;SDS011;50047;50.596;30.466;2023-07-31T06:11:56;7.30;;;5.80;;
63882;SDS011;50047;50.596;30.466;2023-07-31T06:14:24;7.80;;;6.40;;
63882;SDS011;50047;50.596;30.466;2023-07-31T06:16:50;7.40;;;6.30;;
63882;SDS011;50047;50.596;30.466;2023-07-31T06:19:17;7.10;;;3.60;;
63882;SDS011;50047;50.596;30.466;2023-07-31T06:21:44;6.90;;;4.70;;
63882;SDS011;50047;50.596;30.466;2023-07-31T06:24:11;8.20;;;5.50;;
63882;SDS011;50047;50.596;30.466;2023-07-31T06:26:38;8.20;;;5.90;;
63882;SDS011;50047;50.596;30.466;2023-07-31T06:29:06;7.50;;;6.20;;
63882;SDS011;50047;50.596;30.466;2023-07-31T06:31:32;9.10;;;6.60;;
63882;SDS011;50047;50.596;30.466;2023-07-31T06:34:00;9.40;;;7.10;;
63882;SDS011;50047;50.596;30.466;2023-07-31T06:36:27;9.20;;;6.90;;
63882;SDS011;50047;50.596;30.466;2023-07-31T06:38:54;9.00;;;6.80;;
63882;SDS011;50047;50.596;30.466;2023-07-31T06:41:21;6.40;;;4.40;;
63882;SDS011;50047;50.596;30.466;2023-07-31T06:43:48;6.60;;;4.90;;
63882;SDS011;50047;50.596;30.466;2023-07-31T06:46:15;7.70;;;5.90;;
63882;SDS011;50047;50.596;30.466;2023-07-31T06:48:42;9.40;;;7.10;;
63882;SDS011;50047;50.596;30.466;2023-07-31T06:51:11;9.10;;;7.50;;
63882;SDS011;50047;50.596;30.466;2023-07-31T06:53:38;9.90;;;7.60;;
63882;SDS011;50047;50.596;30.466;2023-07-31T06:56:05;10.70;;;8.10;;
63882;SDS011;50047;50.596;30.466;2023-07-31T06:58:32;11.10;;;7.80;;
63882;SDS011;50047;50.596;30.466;2023-07-31T07:00:59;9.10;;;7.80;;
63882;SDS011;50047;50.596;30.466;2023-07-31T07:03:27;9.90;;;7.90;;
63882;SDS011;50047;50.596;30.466;2023-07-31T07:05:54;6.40;;;4.90;;
63882;SDS011;50047;50.596;30.466;2023-07-31T07:08:21;6.80;;;5.40;;
63882;SDS011;50047;50.596;30.466;2023-07-31T07:10:48;10.50;;;7.10;;
63882;SDS011;50047;50.596;30.466;2023-07-31T07:13:15;8.80;;;6.90;;
63882;SDS011;50047;50.596;30.466;2023-07-31T07:15:41;9.10;;;7.80;;
63882;SDS011;50047;50.596;30.466;2023-07-31T07:18:08;11.20;;;8.10;;
63882;SDS011;50047;50.596;30.466;2023-07-31T07:20:37;8.90;;;7.70;;
63882;SDS011;50047;50.596;30.466;2023-07-31T07:23:06;9.30;;;7.80;;
63882;SDS011;50047;50.596;30.466;2023-07-31T07:25:35;9.70;;;8.20;;
63882;SDS011;50047;50.596;30.466;2023-07-31T07:28:04;9.20;;;7.90;;
63882;SDS011;50047;50.596;30.466;2023-07-31T07:30:31;10.10;;;8.10;;
63882;SDS011;50047;50.596;30.466;2023-07-31T07:32:59;7.00;;;5.40;;
63882;SDS011;50047;50.596;30.466;2023-07-31T07:35:26;8.20;;;5.70;;
63882;SDS011;50047;50.596;30.466;2023-07-31T07:37:53;9.00;;;6.80;;
63882;SDS011;50047;50.596;30.466;2023-07-31T07:40:20;8.70;;;7.30;;
63882;SDS011;50047;50.596;30.466;2023-07-31T07:42:47;11.00;;;8.40;;
63882;SDS011;50047;50.596;30.466;2023-07-31T07:45:14;9.50;;;7.80;;
63882;SDS011;50047;50.596;30.466;2023-07-31T07:47:41;10.60;;;8.30;;
63882;SDS011;50047;50.596;30.466;2023-07-31T07:50:09;10.70;;;8.80;;
63882;SDS011;50047;50.596;30.466;2023-07-31T07:52:36;9.80;;;8.50;;
63882;SDS011;50047;50.596;30.466;2023-07-31T07:55:03;10.20;;;8.00;;
63882;SDS011;50047;50.596;30.466;2023-07-31T07:57:30;10.10;;;8.60;;
63882;SDS011;50047;50.596;30.466;2023-07-31T07:59:58;10.60;;;8.70;;
63882;SDS011;50047;50.596;30.466;2023-07-31T08:02:24;10.90;;;8.80;;
63882;SDS011;50047;50.596;30.466;2023-07-31T08:04:52;11.60;;;9.20;;
63882;SDS011;50047;50.596;30.466;2023-07-31T08:07:21;10.40;;;8.40;;
63882;SDS011;50047;50.596;30.466;2023-07-31T08:09:49;10.70;;;8.40;;
63882;SDS011;50047;50.596;30.466;2023-07-31T08:12:16;10.70;;;9.00;;
63882;SDS011;50047;50.596;30.466;2023-07-31T08:14:43;9.30;;;8.20;;
63882;SDS011;50047;50.596;30.466;2023-07-31T08:17:10;11.50;;;8.60;;
63882;SDS011;50047;50.596;30.466;2023-07-31T08:19:37;10.20;;;8.50;;
63882;SDS011;50047;50.596;30.466;2023-07-31T08:22:04;10.00;;;8.60;;
63882;SDS011;50047;50.596;30.466;2023-07-31T08:24:31;11.00;;;8.90;;
63882;SDS011;50047;50.596;30.466;2023-07-31T08:26:58;7.10;;;5.20;;
63882;SDS011;50047;50.596;30.466;2023-07-31T08:29:25;9.70;;;6.20;;
63882;SDS011;50047;50.596;30.466;2023-07-31T08:31:52;9.80;;;7.00;;
63882;SDS011;50047;50.596;30.466;2023-07-31T08:34:19;10.20;;;8.00;;
63882;SDS011;50047;50.596;30.466;2023-07-31T08:36:46;11.20;;;7.80;;
63882;SDS011;50047;50.596;30.466;2023-07-31T08:39:12;9.90;;;8.20;;
63882;SDS011;50047;50.596;30.466;2023-07-31T08:41:39;10.40;;;8.90;;
63882;SDS011;50047;50.596;30.466;2023-07-31T08:44:07;11.00;;;8.70;;
63882;SDS011;50047;50.596;30.466;2023-07-31T08:46:34;11.40;;;9.70;;
63882;SDS011;50047;50.596;30.466;2023-07-31T08:49:03;12.60;;;9.20;;
63882;SDS011;50047;50.596;30.466;2023-07-31T08:51:35;11.70;;;8.70;;
63882;SDS011;50047;50.596;30.466;2023-07-31T08:54:03;11.00;;;9.40;;
63882;SDS011;50047;50.596;30.466;2023-07-31T08:56:31;13.30;;;9.40;;
63882;SDS011;50047;50.596;30.466;2023-07-31T08:58:59;12.10;;;9.40;;
63882;SDS011;50047;50.596;30.466;2023-07-31T09:01:29;8.70;;;6.10;;
63882;SDS011;50047;50.596;30.466;2023-07-31T09:03:59;10.20;;;7.20;;
63882;SDS011;50047;50.596;30.466;2023-07-31T09:06:28;10.00;;;8.00;;
63882;SDS011;50047;50.596;30.466;2023-07-31T09:08:56;11.40;;;8.70;;
63882;SDS011;50047;50.596;30.466;2023-07-31T09:11:24;11.10;;;9.20;;
63882;SDS011;50047;50.596;30.466;2023-07-31T09:13:52;12.60;;;9.40;;
63882;SDS011;50047;50.596;30.466;2023-07-31T09:16:26;9.80;;;8.20;;
63882;SDS011;50047;50.596;30.466;2023-07-31T09:18:56;10.90;;;8.40;;
63882;SDS011;50047;50.596;30.466;2023-07-31T09:21:25;12.50;;;9.70;;
63882;SDS011;50047;50.596;30.466;2023-07-31T09:23:54;12.20;;;9.20;;
63882;SDS011;50047;50.596;30.466;2023-07-31T09:29:04;13.00;;;9.90;;
63882;SDS011;50047;50.596;30.466;2023-07-31T09:31:32;13.90;;;10.00;;
63882;SDS011;50047;50.596;30.466;2023-07-31T09:34:10;12.40;;;10.00;;
63882;SDS011;50047;50.596;30.466;2023-07-31T09:36:41;13.10;;;10.10;;
63882;SDS011;50047;50.596;30.466;2023-07-31T09:39:10;13.10;;;9.60;;
63882;SDS011;50047;50.596;30.466;2023-07-31T09:41:38;12.00;;;9.60;;
63882;SDS011;50047;50.596;30.466;2023-07-31T09:44:10;11.70;;;9.80;;
63882;SDS011;50047;50.596;30.466;2023-07-31T09:46:38;17.10;;;8.90;;
63882;SDS011;50047;50.596;30.466;2023-07-31T09:49:06;11.40;;;9.40;;
63882;SDS011;50047;50.596;30.466;2023-07-31T09:51:38;11.70;;;8.90;;
63882;SDS011;50047;50.596;30.466;2023-07-31T09:54:16;12.80;;;8.80;;
63882;SDS011;50047;50.596;30.466;2023-07-31T09:56:47;10.90;;;8.40;;
63882;SDS011;50047;50.596;30.466;2023-07-31T09:59:16;11.50;;;8.60;;
63882;SDS011;50047;50.596;30.466;2023-07-31T10:01:50;10.40;;;7.70;;
63882;SDS011;50047;50.596;30.466;2023-07-31T10:04:18;10.50;;;8.10;;
63882;SDS011;50047;50.596;30.466;2023-07-31T10:06:52;9.20;;;7.80;;
63882;SDS011;50047;50.596;30.466;2023-07-31T10:09:21;12.30;;;8.40;;
63882;SDS011;50047;50.596;30.466;2023-07-31T10:11:54;11.30;;;8.40;;
63882;SDS011;50047;50.596;30.466;2023-07-31T10:14:26;11.90;;;8.80;;
63882;SDS011;50047;50.596;30.466;2023-07-31T10:16:54;11.90;;;8.80;;
63882;SDS011;50047;50.596;30.466;2023-07-31T10:19:23;11.40;;;8.50;;
63882;SDS011;50047;50.596;30.466;2023-07-31T10:21:51;11.40;;;8.90;;
63882;SDS011;50047;50.596;30.466;2023-07-31T10:24:18;13.10;;;9.30;;
63882;SDS011;50047;50.596;30.466;2023-07-31T10:26:45;10.70;;;8.80;;
63882;SDS011;50047;50.596;30.466;2023-07-31T10:29:15;16.60;;;9.60;;
63882;SDS011;50047;50.596;30.466;2023-07-31T10:31:44;12.40;;;8.40;;
63882;SDS011;50047;50.596;30.466;2023-07-31T10:34:13;9.80;;;8.10;;
63882;SDS011;50047;50.596;30.466;2023-07-31T10:36:40;11.20;;;8.60;;
63882;SDS011;50047;50.596;30.466;2023-07-31T10:39:33;14.50;;;8.70;;
63882;SDS011;50047;50.596;30.466;2023-07-31T10:42:09;10.50;;;8.00;;
63882;SDS011;50047;50.596;30.466;2023-07-31T10:44:37;9.90;;;8.40;;
63882;SDS011;50047;50.596;30.466;2023-07-31T10:47:06;9.50;;;7.70;;
63882;SDS011;50047;50.596;30.466;2023-07-31T10:49:33;9.70;;;7.60;;
63882;SDS011;50047;50.596;30.466;2023-07-31T10:52:02;11.30;;;8.00;;
63882;SDS011;50047;50.596;30.466;2023-07-31T10:54:31;10.90;;;7.90;;
63882;SDS011;50047;50.596;30.466;2023-07-31T10:57:00;12.90;;;8.00;;
63882;SDS011;50047;50.596;30.466;2023-07-31T10:59:27;9.20;;;7.80;;
63882;SDS011;50047;50.596;30.466;2023-07-31T11:01:55;9.70;;;7.90;;
63882;SDS011;50047;50.596;30.466;2023-07-31T11:04:30;9.10;;;7.70;;
63882;SDS011;50047;50.596;30.466;2023-07-31T11:06:59;9.20;;;7.40;;
63882;SDS011;50047;50.596;30.466;2023-07-31T11:09:28;9.50;;;7.80;;
63882;SDS011;50047;50.596;30.466;2023-07-31T11:11:56;9.80;;;7.60;;
63882;SDS011;50047;50.596;30.466;2023-07-31T11:14:23;10.30;;;8.00;;
63882;SDS011;50047;50.596;30.466;2023-07-31T11:16:50;10.10;;;7.80;;
63882;SDS011;50047;50.596;30.466;2023-07-31T11:19:24;8.50;;;7.20;;
63882;SDS011;50047;50.596;30.466;2023-07-31T11:21:52;11.80;;;7.70;;
63882;SDS011;50047;50.596;30.466;2023-07-31T11:24:20;10.40;;;7.60;;
63882;SDS011;50047;50.596;30.466;2023-07-31T11:26:53;10.40;;;7.80;;
63882;SDS011;50047;50.596;30.466;2023-07-31T11:29:20;10.30;;;7.60;;
63882;SDS011;50047;50.596;30.466;2023-07-31T11:31:53;9.60;;;7.50;;
63882;SDS011;50047;50.596;30.466;2023-07-31T11:34:20;9.40;;;7.80;;
63882;SDS011;50047;50.596;30.466;2023-07-31T11:36:54;9.20;;;7.90;;
63882;SDS011;50047;50.596;30.466;2023-07-31T11:39:22;11.20;;;8.30;;
63882;SDS011;50047;50.596;30.466;2023-07-31T11:41:48;10.00;;;7.50;;
63882;SDS011;50047;50.596;30.466;2023-07-31T11:44:15;8.60;;;7.00;;
63882;SDS011;50047;50.596;30.466;2023-07-31T11:46:57;9.00;;;7.20;;
63882;SDS011;50047;50.596;30.466;2023-07-31T11:49:28;8.10;;;6.80;;
63882;SDS011;50047;50.596;30.466;2023-07-31T11:51:56;7.20;;;5.60;;
63882;SDS011;50047;50.596;30.466;2023-07-31T11:54:23;7.50;;;5.30;;
63882;SDS011;50047;50.596;30.466;2023-07-31T11:56:50;7.10;;;5.20;;
63882;SDS011;50047;50.596;30.466;2023-07-31T11:59:17;5.90;;;5.30;;
63882;SDS011;50047;50.596;30.466;2023-07-31T12:01:44;7.00;;;4.90;;
63882;SDS011;50047;50.596;30.466;2023-07-31T12:04:11;5.10;;;4.60;;
63882;SDS011;50047;50.596;30.466;2023-07-31T12:06:39;5.30;;;4.30;;
63882;SDS011;50047;50.596;30.466;2023-07-31T12:09:06;4.90;;;4.20;;
63882;SDS011;50047;50.596;30.466;2023-07-31T12:11:46;3.60;;;3.30;;
63882;SDS011;50047;50.596;30.466;2023-07-31T12:14:20;5.70;;;4.20;;
63882;SDS011;50047;50.596;30.466;2023-07-31T12:16:58;4.90;;;4.30;;
63882;SDS011;50047;50.596;30.466;2023-07-31T12:19:26;5.80;;;3.90;;
63882;SDS011;50047;50.596;30.466;2023-07-31T12:21:58;5.10;;;3.70;;
63882;SDS011;50047;50.596;30.466;2023-07-31T12:26:55;5.40;;;3.70;;
63882;SDS011;50047;50.596;30.466;2023-07-31T12:29:22;4.80;;;4.20;;
63882;SDS011;50047;50.596;30.466;2023-07-31T12:31:49;4.70;;;4.00;;
63882;SDS011;50047;50.596;30.466;2023-07-31T12:34:16;4.60;;;3.00;;
63882;SDS011;50047;50.596;30.466;2023-07-31T12:36:45;5.20;;;3.60;;
63882;SDS011;50047;50.596;30.466;2023-07-31T12:39:12;3.20;;;2.80;;
63882;SDS011;50047;50.596;30.466;2023-07-31T12:41:39;4.40;;;3.60;;
63882;SDS011;50047;50.596;30.466;2023-07-31T12:44:06;5.20;;;3.90;;
63882;SDS011;50047;50.596;30.466;2023-07-31T12:46:33;4.00;;;3.50;;
63882;SDS011;50047;50.596;30.466;2023-07-31T12:49:00;5.10;;;3.90;;
63882;SDS011;50047;50.596;30.466;2023-07-31T12:51:27;4.50;;;3.30;;
63882;SDS011;50047;50.596;30.466;2023-07-31T12:53:54;5.00;;;3.60;;
63882;SDS011;50047;50.596;30.466;2023-07-31T12:56:21;4.40;;;3.90;;
63882;SDS011;50047;50.596;30.466;2023-07-31T12:58:48;4.40;;;3.80;;
63882;SDS011;50047;50.596;30.466;2023-07-31T13:01:15;5.10;;;3.40;;
63882;SDS011;50047;50.596;30.466;2023-07-31T13:03:42;5.30;;;3.60;;
63882;SDS011;50047;50.596;30.466;2023-07-31T13:06:09;4.10;;;3.40;;
63882;SDS011;50047;50.596;30.466;2023-07-31T13:08:36;4.00;;;3.50;;
63882;SDS011;50047;50.596;30.466;2023-07-31T13:11:02;3.90;;;3.50;;
63882;SDS011;50047;50.596;30.466;2023-07-31T13:13:30;4.40;;;3.40;;
63882;SDS011;50047;50.596;30.466;2023-07-31T13:15:59;4.50;;;3.50;;
63882;SDS011;50047;50.596;30.466;2023-07-31T13:18:26;3.80;;;3.20;;
63882;SDS011;50047;50.596;30.466;2023-07-31T13:20:56;4.60;;;3.40;;
63882;SDS011;50047;50.596;30.466;2023-07-31T13:23:23;3.80;;;3.10;;
63882;SDS011;50047;50.596;30.466;2023-07-31T13:25:50;4.30;;;3.40;;
63882;SDS011;50047;50.596;30.466;2023-07-31T13:28:17;3.30;;;3.00;;
63882;SDS011;50047;50.596;30.466;2023-07-31T13:30:44;3.50;;;2.80;;
63882;SDS011;50047;50.596;30.466;2023-07-31T13:33:12;3.50;;;2.70;;
63882;SDS011;50047;50.596;30.466;2023-07-31T13:35:55;3.00;;;2.50;;
63882;SDS011;50047;50.596;30.466;2023-07-31T13:38:22;3.60;;;2.90;;
63882;SDS011;50047;50.596;30.466;2023-07-31T13:40:49;3.40;;;3.10;;
63882;SDS011;50047;50.596;30.466;2023-07-31T13:43:17;3.90;;;3.00;;
63882;SDS011;50047;50.596;30.466;2023-07-31T13:45:44;6.10;;;3.10;;
63882;SDS011;50047;50.596;30.466;2023-07-31T13:48:10;4.20;;;2.90;;
63882;SDS011;50047;50.596;30.466;2023-07-31T13:50:37;4.60;;;3.00;;
63882;SDS011;50047;50.596;30.466;2023-07-31T13:53:04;5.30;;;3.40;;
63882;SDS011;50047;50.596;30.466;2023-07-31T13:55:31;4.70;;;3.30;;
63882;SDS011;50047;50.596;30.466;2023-07-31T13:57:58;4.60;;;3.60;;
63882;SDS011;50047;50.596;30.466;2023-07-31T14:00:25;4.50;;;4.00;;
63882;SDS011;50047;50.596;30.466;2023-07-31T14:02:52;4.90;;;4.10;;
63882;SDS011;50047;50.596;30.466;2023-07-31T14:05:19;7.40;;;4.70;;
63882;SDS011;50047;50.596;30.466;2023-07-31T14:07:46;12.30;;;4.30;;
63882;SDS011;50047;50.596;30.466;2023-07-31T14:10:13;6.30;;;4.80;;
63882;SDS011;50047;50.596;30.466;2023-07-31T14:12:39;8.40;;;5.40;;
63882;SDS011;50047;50.596;30.466;2023-07-31T14:15:09;9.30;;;5.00;;
63882;SDS011;50047;50.596;30.466;2023-07-31T14:17:37;9.80;;;5.10;;
63882;SDS011;50047;50.596;30.466;2023-07-31T14:20:05;7.70;;;4.50;;
63882;SDS011;50047;50.596;30.466;2023-07-31T14:22:33;6.20;;;4.50;;
63882;SDS011;50047;50.596;30.466;2023-07-31T14:25:01;6.30;;;4.50;;
63882;SDS011;50047;50.596;30.466;2023-07-31T14:27:28;7.70;;;5.20;;
63882;SDS011;50047;50.596;30.466;2023-07-31T14:29:55;9.30;;;6.40;;
63882;SDS011;50047;50.596;30.466;2023-07-31T14:32:22;11.00;;;7.80;;
63882;SDS011;50047;50.596;30.466;2023-07-31T14:34:51;11.80;;;7.60;;
63882;SDS011;50047;50.596;30.466;2023-07-31T14:37:18;11.60;;;8.10;;
63882;SDS011;50047;50.596;30.466;2023-07-31T14:39:45;10.80;;;7.00;;
63882;SDS011;50047;50.596;30.466;2023-07-31T14:42:12;12.20;;;7.80;;
63882;SDS011;50047;50.596;30.466;2023-07-31T14:44:39;12.20;;;8.20;;
63882;SDS011;50047;50.596;30.466;2023-07-31T14:47:05;11.10;;;8.60;;
63882;SDS011;50047;50.596;30.466;2023-07-31T14:49:33;13.90;;;9.60;;